Time;durP1;ratioP1;P1;durP2;ratioP2;P2;SDS_P1;SDS_P2;PMS_P1;PMS_P2;Temp;Humidity;BMP_temperature;BMP_pressure;BME280_temperature;BME280_humidity;BME280_pressure;Samples;Min_cycle;Max_cycle;Signal;HPM_P1;HPM_P2
2021/05/31 00:01:19;;;;;;;11.13;9.73;;;13.20;99.90;;;;;;5001761;28;20199;-67
2021/05/31 00:03:45;;;;;;;11.20;10.10;;;13.10;99.90;;;;;;4993753;28;20227;-67
2021/05/31 00:06:10;;;;;;;11.57;10.33;;;13.10;99.90;;;;;;4990458;28;20209;-67
2021/05/31 00:08:36;;;;;;;12.30;10.97;;;13.10;99.90;;;;;;5000467;28;20266;-70
2021/05/31 00:11:02;;;;;;;11.90;10.50;;;13.10;99.90;;;;;;5005492;28;20196;-66
2021/05/31 00:13:29;;;;;;;12.73;10.63;;;13.10;99.90;;;;;;5000702;28;20266;-67
2021/05/31 00:15:55;;;;;;;11.60;10.17;;;13.10;99.90;;;;;;5006658;28;20647;-68
2021/05/31 00:18:21;;;;;;;12.43;10.47;;;13.00;99.90;;;;;;5003743;28;20621;-67
2021/05/31 00:20:47;;;;;;;11.97;10.63;;;13.00;99.90;;;;;;4998526;28;20676;-67
2021/05/31 00:23:13;;;;;;;12.80;10.30;;;13.00;99.90;;;;;;4990591;28;21348;-67
2021/05/31 00:25:39;;;;;;;11.53;10.30;;;12.90;99.90;;;;;;4999024;28;20614;-66
2021/05/31 00:28:07;;;;;;;14.23;10.87;;;12.90;99.90;;;;;;4996260;28;20540;-69
2021/05/31 00:30:33;;;;;;;12.93;10.90;;;12.90;99.90;;;;;;4996523;28;20680;-66
2021/05/31 00:33:01;;;;;;;13.87;11.23;;;12.80;99.90;;;;;;4996272;28;21172;-66
2021/05/31 00:35:27;;;;;;;12.13;10.90;;;12.80;99.90;;;;;;4996621;28;20262;-67
2021/05/31 00:37:56;;;;;;;14.60;11.87;;;12.80;99.90;;;;;;4999395;28;20630;-67
2021/05/31 00:40:23;;;;;;;12.23;10.93;;;12.80;99.90;;;;;;5000046;28;20220;-67
2021/05/31 00:42:49;;;;;;;14.00;11.20;;;12.70;99.90;;;;;;4988992;28;20718;-66
2021/05/31 00:45:15;;;;;;;11.20;10.10;;;12.80;99.90;;;;;;5019803;28;20666;-67
2021/05/31 00:47:41;;;;;;;12.93;11.30;;;12.70;99.90;;;;;;5018546;28;20720;-67
2021/05/31 00:50:08;;;;;;;11.40;10.30;;;12.70;99.90;;;;;;5010582;28;20663;-67
2021/05/31 00:52:33;;;;;;;13.40;11.00;;;12.70;99.90;;;;;;4998820;28;20663;-66
2021/05/31 00:54:59;;;;;;;11.90;10.27;;;12.60;99.90;;;;;;4998969;28;21335;-67
2021/05/31 00:57:26;;;;;;;13.67;11.17;;;12.50;99.90;;;;;;4997279;28;20840;-67
2021/05/31 00:59:51;;;;;;;12.53;11.23;;;12.50;99.90;;;;;;4998509;28;20200;-66
2021/05/31 01:02:17;;;;;;;11.47;10.30;;;12.50;99.90;;;;;;4993667;28;20607;-67
2021/05/31 01:04:43;;;;;;;11.57;10.37;;;12.50;99.90;;;;;;5000708;28;20216;-70
2021/05/31 01:07:35;;;;;;;11.17;10.00;;;12.40;99.90;;;;;;4996085;28;20616;-67
2021/05/31 01:10:10;;;;;;;11.23;10.13;;;12.40;99.90;;;;;;4996179;28;20211;-67
2021/05/31 01:12:40;;;;;;;11.87;10.63;;;12.30;99.90;;;;;;4991834;28;21224;-67
2021/05/31 01:15:12;;;;;;;12.63;10.43;;;12.30;99.90;;;;;;4994003;28;20663;-72
2021/05/31 01:17:59;;;;;;;13.00;11.00;;;12.30;99.90;;;;;;4995379;28;20611;-66
2021/05/31 01:21:03;;;;;;;11.87;10.67;;;12.20;99.90;;;;;;5005715;28;20733;-66
2021/05/31 01:23:33;;;;;;;12.07;10.63;;;12.20;99.90;;;;;;5004100;28;20692;-67
2021/05/31 01:26:05;;;;;;;13.37;10.97;;;12.20;99.90;;;;;;5005287;28;20670;-67
2021/05/31 01:28:52;;;;;;;11.40;10.30;;;12.10;99.90;;;;;;5004411;28;21204;-67
2021/05/31 01:31:27;;;;;;;10.83;9.73;;;12.10;99.90;;;;;;5004244;28;23621;-66
2021/05/31 01:33:55;;;;;;;13.47;12.07;;;12.10;99.90;;;;;;4993945;28;20643;-66
2021/05/31 01:36:23;;;;;;;12.30;11.00;;;12.00;99.90;;;;;;5006066;28;20651;-67
2021/05/31 01:38:51;;;;;;;11.93;10.63;;;12.10;99.90;;;;;;5019290;28;20652;-67
2021/05/31 01:41:17;;;;;;;12.80;11.50;;;12.00;99.90;;;;;;5001009;28;20664;-67
2021/05/31 01:43:44;;;;;;;13.10;11.20;;;12.00;99.90;;;;;;5010616;28;21360;-66
2021/05/31 01:46:10;;;;;;;11.23;10.10;;;11.90;99.90;;;;;;4998786;28;20654;-67
2021/05/31 01:48:39;;;;;;;12.20;10.87;;;11.90;99.90;;;;;;5006702;28;20659;-66
2021/05/31 01:51:05;;;;;;;12.70;11.40;;;11.90;99.90;;;;;;4997126;28;20549;-67
2021/05/31 01:53:32;;;;;;;12.43;11.13;;;11.90;99.90;;;;;;5004972;28;20720;-68
2021/05/31 01:55:58;;;;;;;11.40;10.20;;;11.80;99.90;;;;;;5001700;28;20684;-67
2021/05/31 01:58:25;;;;;;;12.67;11.47;;;11.80;99.90;;;;;;5000921;28;20692;-67
2021/05/31 02:00:51;;;;;;;12.40;11.10;;;11.80;99.90;;;;;;4995410;28;20620;-67
2021/05/31 02:03:16;;;;;;;13.27;11.23;;;11.70;99.90;;;;;;4998058;28;20624;-67
2021/05/31 02:05:42;;;;;;;12.37;11.07;;;11.70;99.90;;;;;;5004265;28;20646;-67
2021/05/31 02:08:07;;;;;;;12.37;11.07;;;11.60;99.90;;;;;;5003848;28;20197;-67
2021/05/31 02:10:33;;;;;;;13.67;11.43;;;11.60;99.90;;;;;;4996552;28;20209;-71
2021/05/31 02:13:01;;;;;;;11.87;10.67;;;11.60;99.90;;;;;;4993460;28;20268;-67
2021/05/31 02:15:36;;;;;;;13.60;11.17;;;11.60;99.90;;;;;;4996221;28;20287;-69
2021/05/31 02:18:13;;;;;;;12.57;11.23;;;11.50;99.90;;;;;;4999261;28;20663;-66
2021/05/31 02:20:41;;;;;;;12.07;10.73;;;11.50;99.90;;;;;;4995610;28;20648;-67
2021/05/31 02:23:08;;;;;;;11.77;10.30;;;11.50;99.90;;;;;;4993446;28;20660;-67
2021/05/31 02:25:34;;;;;;;12.57;11.27;;;11.50;99.90;;;;;;5005121;28;20654;-66
2021/05/31 02:28:00;;;;;;;11.70;10.50;;;11.50;99.90;;;;;;5010970;28;21073;-66
2021/05/31 02:30:26;;;;;;;13.23;11.47;;;11.40;99.90;;;;;;4998245;28;20647;-66
2021/05/31 02:32:57;;;;;;;12.37;10.67;;;11.40;99.90;;;;;;5015374;28;20634;-67
2021/05/31 02:35:24;;;;;;;12.63;11.07;;;11.40;99.90;;;;;;5003682;28;20686;-67
2021/05/31 02:37:50;;;;;;;13.10;10.87;;;11.30;99.90;;;;;;4999255;28;21073;-67
2021/05/31 02:40:17;;;;;;;12.17;10.87;;;11.30;99.90;;;;;;5006725;28;20654;-67
2021/05/31 02:42:46;;;;;;;11.63;10.50;;;11.30;99.90;;;;;;5003474;28;20280;-66
2021/05/31 02:45:16;;;;;;;13.20;11.50;;;11.30;99.90;;;;;;4995291;28;20894;-66
2021/05/31 02:47:43;;;;;;;12.03;10.83;;;11.20;99.90;;;;;;5002370;28;20654;-66
2021/05/31 02:50:09;;;;;;;12.17;10.90;;;11.20;99.90;;;;;;4990733;28;21005;-67
2021/05/31 02:52:39;;;;;;;12.60;10.30;;;11.20;99.90;;;;;;4995522;28;20639;-66
2021/05/31 02:55:09;;;;;;;12.63;11.27;;;11.20;99.90;;;;;;4988525;28;20647;-67
2021/05/31 02:57:35;;;;;;;13.17;10.67;;;11.20;99.90;;;;;;4999207;28;22646;-67
2021/05/31 03:00:01;;;;;;;12.23;10.63;;;11.20;99.90;;;;;;5000329;28;20734;-66
2021/05/31 03:02:27;;;;;;;12.07;10.77;;;11.20;99.90;;;;;;4997080;28;20630;-66
2021/05/31 03:04:52;;;;;;;12.43;11.00;;;11.20;99.90;;;;;;4997857;28;20235;-66
2021/05/31 03:07:18;;;;;;;12.93;11.33;;;11.20;99.90;;;;;;5007437;28;20292;-66
2021/05/31 03:09:44;;;;;;;12.90;11.13;;;11.20;99.90;;;;;;5010036;28;20773;-67
2021/05/31 03:12:11;;;;;;;13.40;11.03;;;11.20;99.90;;;;;;5012124;28;20264;-66
2021/05/31 03:14:37;;;;;;;14.33;12.87;;;11.20;99.90;;;;;;5008912;28;20330;-67
2021/05/31 03:17:03;;;;;;;13.90;12.50;;;11.10;99.90;;;;;;5010099;28;20755;-67
2021/05/31 03:19:28;;;;;;;12.97;11.53;;;11.10;99.90;;;;;;5014087;28;20251;-67
2021/05/31 03:21:54;;;;;;;13.87;11.30;;;11.20;99.90;;;;;;5010529;28;20185;-67
2021/05/31 03:24:19;;;;;;;13.10;10.90;;;11.10;99.90;;;;;;5012724;28;20289;-67
2021/05/31 03:26:45;;;;;;;15.90;12.47;;;11.10;99.90;;;;;;5011679;28;20204;-67
2021/05/31 03:29:10;;;;;;;15.27;12.73;;;11.10;99.90;;;;;;5011113;28;20232;-67
2021/05/31 03:31:36;;;;;;;12.20;10.90;;;11.10;99.90;;;;;;5025575;28;20200;-66
2021/05/31 03:34:01;;;;;;;14.20;11.20;;;11.10;99.90;;;;;;5029722;28;20252;-66
2021/05/31 03:36:27;;;;;;;12.93;11.00;;;11.10;99.90;;;;;;5001075;28;20281;-66
2021/05/31 03:38:53;;;;;;;14.10;12.27;;;11.10;99.90;;;;;;5000786;28;20809;-66
2021/05/31 03:41:18;;;;;;;13.33;11.37;;;11.10;99.90;;;;;;5006467;28;20193;-66
2021/05/31 03:43:44;;;;;;;12.73;11.13;;;11.10;99.90;;;;;;5087525;22;20247;-64
2021/05/31 03:46:09;;;;;;;15.20;12.40;;;11.10;99.90;;;;;;5025992;28;20290;-64
2021/05/31 03:48:35;;;;;;;13.30;11.43;;;11.10;99.90;;;;;;5023834;28;20668;-65
2021/05/31 03:51:14;;;;;;;13.17;11.80;;;11.10;99.90;;;;;;5007510;28;20185;-65
2021/05/31 03:53:40;;;;;;;15.50;11.53;;;11.10;99.90;;;;;;5007168;28;20732;-65
2021/05/31 03:56:07;;;;;;;14.27;12.47;;;11.10;99.90;;;;;;5010161;28;20751;-65
2021/05/31 03:58:37;;;;;;;13.50;11.40;;;11.10;99.90;;;;;;5004287;28;20975;-65
2021/05/31 04:01:03;;;;;;;13.17;11.20;;;11.10;99.90;;;;;;5002115;28;20695;-65
2021/05/31 04:03:32;;;;;;;12.87;10.97;;;11.10;99.90;;;;;;5005509;28;20701;-66
2021/05/31 04:13:52;;;;;;;12.93;11.40;;;11.30;99.90;;;;;;5009638;28;21002;-65
2021/05/31 04:16:18;;;;;;;13.03;11.53;;;11.30;99.90;;;;;;5009386;28;21524;-65
2021/05/31 04:18:43;;;;;;;14.00;11.67;;;11.30;99.90;;;;;;4999888;28;20767;-68
2021/05/31 04:21:09;;;;;;;14.40;12.40;;;11.30;99.90;;;;;;5004504;28;20182;-64
2021/05/31 04:23:34;;;;;;;16.93;11.20;;;11.40;99.90;;;;;;4988460;28;20307;-63
2021/05/31 04:26:00;;;;;;;15.97;12.60;;;11.40;99.90;;;;;;5001120;28;20189;-64
2021/05/31 04:28:28;;;;;;;15.47;11.70;;;11.40;99.90;;;;;;5011660;28;20189;-63
2021/05/31 04:30:58;;;;;;;12.50;11.20;;;11.40;99.90;;;;;;5005595;28;20303;-65
2021/05/31 04:33:24;;;;;;;12.37;10.60;;;11.50;99.90;;;;;;5016360;28;20699;-66
2021/05/31 04:35:49;;;;;;;13.90;10.73;;;11.50;99.90;;;;;;5014137;28;20652;-66
2021/05/31 04:38:18;;;;;;;12.50;11.20;;;11.60;99.90;;;;;;5007402;28;20212;-63
2021/05/31 04:40:43;;;;;;;12.63;11.30;;;11.60;99.90;;;;;;5008658;28;20236;-64
2021/05/31 04:43:09;;;;;;;13.00;11.17;;;11.70;99.90;;;;;;4989768;28;20702;-64
2021/05/31 04:45:34;;;;;;;12.63;11.33;;;11.70;99.90;;;;;;4983278;28;20665;-64
2021/05/31 04:48:00;;;;;;;14.90;12.37;;;11.70;99.90;;;;;;4992456;28;20216;-64
2021/05/31 04:50:26;;;;;;;15.57;11.77;;;11.80;99.90;;;;;;4987884;28;20209;-64
2021/05/31 04:52:56;;;;;;;12.47;11.13;;;11.80;99.90;;;;;;5006207;28;20204;-64
2021/05/31 04:55:22;;;;;;;12.73;11.33;;;11.90;99.90;;;;;;4992847;28;20803;-64
2021/05/31 04:57:47;;;;;;;15.70;11.20;;;12.00;99.90;;;;;;5010772;28;20710;-65
2021/05/31 05:00:15;;;;;;;12.00;9.87;;;12.10;99.90;;;;;;5011529;28;20209;-63
2021/05/31 05:02:41;;;;;;;11.87;10.67;;;12.10;99.90;;;;;;4981875;28;20182;-64
2021/05/31 05:05:07;;;;;;;13.53;10.53;;;12.20;99.90;;;;;;4997569;28;20741;-65
2021/05/31 05:07:33;;;;;;;11.03;9.83;;;12.30;99.90;;;;;;4998671;28;20189;-65
2021/05/31 05:10:01;;;;;;;10.97;9.40;;;12.40;99.90;;;;;;4990141;28;21221;-65
2021/05/31 05:12:26;;;;;;;11.33;10.00;;;12.50;99.90;;;;;;4995757;28;20574;-64
2021/05/31 05:14:52;;;;;;;11.93;9.73;;;12.60;99.90;;;;;;5004119;28;20985;-64
2021/05/31 05:17:18;;;;;;;10.17;8.93;;;12.70;99.90;;;;;;5000187;28;20201;-64
2021/05/31 05:19:46;;;;;;;10.10;9.10;;;12.80;99.90;;;;;;5003775;28;20224;-65
2021/05/31 05:22:11;;;;;;;10.77;9.67;;;12.90;99.90;;;;;;4998955;28;20692;-65
2021/05/31 05:24:37;;;;;;;10.37;9.30;;;12.90;99.90;;;;;;5004329;28;20793;-65
2021/05/31 05:27:06;;;;;;;9.77;8.87;;;12.90;99.90;;;;;;5004160;28;20197;-65
2021/05/31 05:29:32;;;;;;;10.93;9.33;;;13.00;99.90;;;;;;5013407;28;20240;-65
2021/05/31 05:32:00;;;;;;;9.97;8.23;;;13.00;99.90;;;;;;5008735;28;21203;-64
2021/05/31 05:34:26;;;;;;;8.63;7.70;;;13.10;99.90;;;;;;5000053;28;20743;-65
2021/05/31 05:37:16;;;;;;;9.07;7.50;;;13.20;99.90;;;;;;4978468;28;22225;-65
2021/05/31 05:47:48;;;;;;;6.47;5.87;;;13.50;99.90;;;;;;4992511;28;20757;-66
2021/05/31 05:50:19;;;;;;;5.60;5.10;;;13.50;99.90;;;;;;4985132;28;20674;-64
2021/05/31 05:52:45;;;;;;;6.07;5.57;;;13.60;99.90;;;;;;4998506;28;20655;-63
2021/05/31 05:55:12;;;;;;;6.03;4.60;;;13.70;99.90;;;;;;5009626;28;20643;-63
2021/05/31 05:57:38;;;;;;;7.50;5.37;;;13.80;99.90;;;;;;4976261;28;21000;-62
2021/05/31 06:00:10;;;;;;;5.60;5.10;;;13.90;99.90;;;;;;4998082;28;20712;-62
2021/05/31 06:02:36;;;;;;;5.60;5.10;;;13.90;99.90;;;;;;5011390;28;20710;-63
2021/05/31 06:05:01;;;;;;;5.30;4.77;;;13.90;99.90;;;;;;4999263;28;21482;-63
2021/05/31 06:07:27;;;;;;;4.57;4.10;;;14.00;99.90;;;;;;5010918;28;20189;-64
2021/05/31 06:09:53;;;;;;;4.97;4.30;;;14.10;99.90;;;;;;5009864;28;20572;-63
2021/05/31 06:12:19;;;;;;;5.13;4.40;;;14.10;99.90;;;;;;4990956;28;20727;-63
2021/05/31 06:14:45;;;;;;;4.47;4.00;;;14.20;99.90;;;;;;4975011;28;20697;-63
2021/05/31 06:17:10;;;;;;;4.17;3.73;;;14.20;99.90;;;;;;5007729;28;20233;-63
2021/05/31 06:19:36;;;;;;;6.13;4.37;;;14.30;99.90;;;;;;5008913;28;20232;-63
2021/05/31 06:22:02;;;;;;;4.10;3.80;;;14.30;99.90;;;;;;5003010;28;20663;-65
2021/05/31 06:24:29;;;;;;;4.37;3.97;;;14.30;99.90;;;;;;4996152;28;20308;-65
2021/05/31 06:26:55;;;;;;;4.67;4.27;;;14.40;99.90;;;;;;5006718;28;20708;-65
2021/05/31 06:29:20;;;;;;;3.60;3.30;;;14.50;99.90;;;;;;5000257;28;21186;-66
2021/05/31 06:31:48;;;;;;;3.67;3.37;;;14.50;99.90;;;;;;5012881;28;20242;-65
2021/05/31 06:34:16;;;;;;;4.13;3.83;;;14.70;99.90;;;;;;5011580;28;20248;-66
2021/05/31 06:36:42;;;;;;;3.73;3.30;;;14.80;99.90;;;;;;5008079;28;20720;-66
2021/05/31 06:39:11;;;;;;;3.73;3.43;;;14.80;99.90;;;;;;5022015;28;21314;-64
2021/05/31 06:41:38;;;;;;;4.10;3.50;;;14.90;99.90;;;;;;5031175;28;20191;-63
2021/05/31 06:44:07;;;;;;;5.10;3.57;;;15.00;99.90;;;;;;5000656;28;20645;-65
2021/05/31 06:46:33;;;;;;;3.97;3.67;;;15.00;99.90;;;;;;5006299;28;20832;-64
2021/05/31 06:48:59;;;;;;;3.73;3.27;;;15.10;99.90;;;;;;5012967;28;23221;-64
2021/05/31 06:51:24;;;;;;;3.60;3.30;;;15.10;99.90;;;;;;5008712;28;20196;-65
2021/05/31 06:53:50;;;;;;;3.10;2.90;;;15.10;99.90;;;;;;5005069;28;20652;-65
2021/05/31 06:56:16;;;;;;;6.03;3.70;;;15.30;99.90;;;;;;5002464;28;20731;-64
2021/05/31 06:58:45;;;;;;;4.70;3.70;;;15.30;99.90;;;;;;4984942;28;20213;-64
2021/05/31 07:01:10;;;;;;;3.80;3.47;;;15.30;99.90;;;;;;4998191;28;20618;-64
2021/05/31 07:03:39;;;;;;;3.57;3.27;;;15.30;99.90;;;;;;5003171;28;20639;-63
2021/05/31 07:06:06;;;;;;;3.80;3.40;;;15.50;99.90;;;;;;4999210;28;21627;-64
2021/05/31 07:08:32;;;;;;;4.50;3.63;;;15.50;99.90;;;;;;5001945;28;20629;-65
2021/05/31 07:11:01;;;;;;;3.73;3.43;;;15.60;99.90;;;;;;4996606;28;20623;-64
2021/05/31 07:13:28;;;;;;;3.83;3.30;;;15.70;99.90;;;;;;5000748;28;21242;-64
2021/05/31 07:16:00;;;;;;;4.40;3.10;;;15.80;99.90;;;;;;5000291;28;20689;-64
2021/05/31 07:18:25;;;;;;;5.60;3.33;;;15.90;99.90;;;;;;5001524;28;21053;-65
2021/05/31 07:20:52;;;;;;;2.97;2.77;;;16.00;99.90;;;;;;5006783;28;20722;-64
2021/05/31 07:23:21;;;;;;;3.60;3.30;;;16.10;99.90;;;;;;4999623;28;20217;-64
2021/05/31 07:25:47;;;;;;;7.83;2.83;;;16.10;99.90;;;;;;4988259;28;20678;-64
2021/05/31 07:28:14;;;;;;;5.13;3.07;;;16.20;99.90;;;;;;5006433;28;21302;-64
2021/05/31 07:30:42;;;;;;;3.27;2.97;;;16.40;99.90;;;;;;4978705;28;20221;-64
2021/05/31 07:33:11;;;;;;;3.47;3.17;;;16.40;99.90;;;;;;5009425;28;20731;-64
2021/05/31 07:35:40;;;;;;;2.97;2.77;;;16.40;99.90;;;;;;4992375;28;20682;-65
2021/05/31 07:38:09;;;;;;;3.30;2.83;;;16.60;99.90;;;;;;4986877;28;21148;-65
2021/05/31 07:40:35;;;;;;;3.47;3.17;;;16.70;99.90;;;;;;4998739;28;21304;-64
2021/05/31 07:43:03;;;;;;;3.50;2.93;;;16.70;99.90;;;;;;5001159;28;20623;-65
2021/05/31 07:45:28;;;;;;;3.73;2.80;;;16.80;99.90;;;;;;5005464;28;20334;-64
2021/05/31 07:47:56;;;;;;;2.77;2.57;;;16.90;99.90;;;;;;4998175;28;21164;-65
2021/05/31 07:50:22;;;;;;;3.10;2.90;;;17.00;99.90;;;;;;4999303;28;20216;-64
2021/05/31 07:52:48;;;;;;;2.80;2.60;;;17.10;99.90;;;;;;4994071;28;20631;-65
2021/05/31 07:55:17;;;;;;;7.40;3.30;;;17.20;99.90;;;;;;5009106;28;20204;-65
2021/05/31 07:57:44;;;;;;;4.60;2.20;;;17.40;99.90;;;;;;5005164;28;20833;-65
2021/05/31 08:00:13;;;;;;;3.43;2.90;;;17.40;99.90;;;;;;4993433;28;20671;-65
2021/05/31 08:02:41;;;;;;;4.17;3.03;;;17.50;99.90;;;;;;4995827;28;20725;-65
2021/05/31 08:05:07;;;;;;;3.07;2.80;;;17.60;99.90;;;;;;4994468;28;20667;-65
2021/05/31 08:07:33;;;;;;;2.63;2.43;;;17.70;99.90;;;;;;5003043;28;20615;-66
2021/05/31 08:09:59;;;;;;;3.03;2.37;;;17.70;99.90;;;;;;4984082;28;21324;-66
2021/05/31 08:12:24;;;;;;;2.97;2.40;;;17.80;99.90;;;;;;5003106;28;20284;-67
2021/05/31 08:14:50;;;;;;;2.50;2.30;;;17.80;99.90;;;;;;4983702;28;20686;-66
2021/05/31 08:17:16;;;;;;;4.17;2.97;;;17.90;99.90;;;;;;5004922;28;20232;-64
2021/05/31 08:19:41;;;;;;;2.63;2.43;;;18.00;99.90;;;;;;5001744;28;21084;-65
2021/05/31 08:22:12;;;;;;;2.80;2.50;;;18.10;99.90;;;;;;5000865;28;20224;-64
2021/05/31 08:24:38;;;;;;;3.00;2.43;;;18.20;99.90;;;;;;4999155;28;20312;-65
2021/05/31 08:27:04;;;;;;;3.00;2.70;;;18.30;99.90;;;;;;4985698;28;20619;-64
2021/05/31 08:29:29;;;;;;;2.73;2.53;;;18.40;99.90;;;;;;4974350;28;20223;-65
2021/05/31 08:31:56;;;;;;;3.03;2.20;;;18.50;99.90;;;;;;4987258;28;21048;-65
2021/05/31 08:34:23;;;;;;;4.47;2.97;;;18.50;99.90;;;;;;5002252;28;20347;-65
2021/05/31 08:36:48;;;;;;;2.90;2.70;;;18.60;99.90;;;;;;5001392;28;21337;-65
2021/05/31 08:39:14;;;;;;;2.80;2.60;;;18.70;99.90;;;;;;4981796;28;21851;-65
2021/05/31 08:41:42;;;;;;;2.50;2.10;;;18.80;99.90;;;;;;5003936;28;20200;-65
2021/05/31 08:44:08;;;;;;;4.37;2.23;;;18.80;99.90;;;;;;5000134;28;20230;-65
2021/05/31 08:46:37;;;;;;;3.03;2.73;;;18.90;99.90;;;;;;5005592;28;20631;-65
2021/05/31 08:49:03;;;;;;;2.83;2.40;;;18.90;99.90;;;;;;4987120;28;20771;-65
2021/05/31 08:51:29;;;;;;;3.57;2.43;;;19.00;99.90;;;;;;4969972;28;22524;-65
2021/05/31 08:53:56;;;;;;;2.63;2.43;;;19.00;99.90;;;;;;4989252;28;20644;-65
2021/05/31 08:56:22;;;;;;;2.83;2.53;;;19.20;99.90;;;;;;5002094;28;20210;-66
2021/05/31 08:58:48;;;;;;;3.00;2.80;;;19.30;99.90;;;;;;4987093;28;20645;-67
2021/05/31 09:01:14;;;;;;;2.87;2.67;;;19.30;99.90;;;;;;5002720;28;20196;-66
2021/05/31 09:03:41;;;;;;;3.00;2.80;;;19.40;99.90;;;;;;4998930;28;20628;-65
2021/05/31 09:06:10;;;;;;;2.67;2.40;;;19.50;99.90;;;;;;5007484;28;20634;-66
2021/05/31 09:08:45;;;;;;;4.50;2.60;;;19.60;99.90;;;;;;5001769;28;20675;-64
2021/05/31 09:11:16;;;;;;;3.67;2.80;;;19.60;99.90;;;;;;4997840;28;20650;-66
2021/05/31 09:13:43;;;;;;;3.83;3.00;;;19.70;99.90;;;;;;5006184;28;20636;-65
2021/05/31 09:16:20;;;;;;;2.87;2.70;;;19.70;99.90;;;;;;5008056;28;20695;-65
2021/05/31 09:18:58;;;;;;;3.23;2.83;;;19.80;99.90;;;;;;4986431;28;20682;-65
2021/05/31 09:21:29;;;;;;;3.47;3.17;;;19.80;99.90;;;;;;5004410;28;20983;-66
2021/05/31 09:24:00;;;;;;;3.27;2.80;;;19.90;99.90;;;;;;4985908;28;20692;-66
2021/05/31 09:26:29;;;;;;;3.07;2.87;;;20.10;99.90;;;;;;5000803;28;20713;-65
2021/05/31 09:28:59;;;;;;;2.93;2.70;;;20.10;99.90;;;;;;4997434;28;20655;-65
2021/05/31 09:31:26;;;;;;;3.10;2.80;;;20.20;99.90;;;;;;4982552;28;20632;-67
2021/05/31 09:34:00;;;;;;;3.40;3.10;;;20.20;99.90;;;;;;4996444;28;21224;-65
2021/05/31 09:36:26;;;;;;;3.00;2.80;;;20.30;99.90;;;;;;4984372;28;20639;-66
2021/05/31 09:38:52;;;;;;;3.40;3.10;;;20.40;99.90;;;;;;5003114;28;20655;-66
2021/05/31 09:41:46;;;;;;;3.60;3.30;;;20.50;99.90;;;;;;4999033;28;20672;-66
2021/05/31 09:44:13;;;;;;;3.20;2.90;;;20.50;99.90;;;;;;5002255;28;22915;-65
2021/05/31 09:46:44;;;;;;;3.43;3.10;;;20.50;99.90;;;;;;5068620;23;20683;-89
2021/05/31 09:49:18;;;;;;;3.37;3.10;;;20.50;99.90;;;;;;5029794;28;20646;-89
2021/05/31 09:52:04;;;;;;;4.13;3.20;;;20.60;99.90;;;;;;5021752;28;20704;-89
2021/05/31 09:54:35;;;;;;;3.67;3.37;;;20.60;99.90;;;;;;5014643;28;21983;-89
2021/05/31 09:57:13;;;;;;;4.43;3.50;;;20.80;99.90;;;;;;5026164;28;20684;-92
2021/05/31 09:59:41;;;;;;;4.50;3.20;;;20.80;99.90;;;;;;5034329;28;20639;-89
2021/05/31 10:02:09;;;;;;;3.17;2.97;;;20.90;99.90;;;;;;5025801;28;20710;-89
2021/05/31 10:05:29;;;;;;;3.20;3.00;;;20.90;99.90;;;;;;5016509;28;21609;-89
2021/05/31 10:09:50;;;;;;;3.93;3.63;;;21.20;99.90;;;;;;5021804;28;20628;-89
2021/05/31 10:12:16;;;;;;;3.30;3.00;;;21.30;99.90;;;;;;5023651;28;20631;-89
2021/05/31 10:14:43;;;;;;;5.27;4.00;;;21.30;99.90;;;;;;5035347;28;20316;-88
2021/05/31 10:17:12;;;;;;;4.00;3.70;;;21.50;99.90;;;;;;5018599;28;20675;-92
2021/05/31 10:19:39;;;;;;;4.17;3.77;;;21.40;99.90;;;;;;5026552;28;20636;-89
2021/05/31 10:22:11;;;;;;;3.63;3.33;;;21.40;99.90;;;;;;5034788;28;20619;-89
2021/05/31 10:24:45;;;;;;;4.93;3.57;;;21.60;99.90;;;;;;5024811;28;20685;-90
2021/05/31 10:27:18;;;;;;;3.73;3.43;;;21.60;99.90;;;;;;5026882;28;20807;-90
2021/05/31 10:29:49;;;;;;;5.30;3.90;;;21.60;99.90;;;;;;5029090;28;20647;-88
2021/05/31 10:32:27;;;;;;;3.60;3.40;;;21.70;99.90;;;;;;5029235;28;20617;-89
2021/05/31 10:34:54;;;;;;;4.57;4.10;;;21.80;99.90;;;;;;5037185;28;20678;-90
2021/05/31 10:37:37;;;;;;;4.07;3.77;;;21.80;99.90;;;;;;5042916;28;21767;-90
2021/05/31 10:40:07;;;;;;;3.73;3.40;;;21.80;99.90;;;;;;5025955;28;21318;-90
2021/05/31 10:42:44;;;;;;;4.03;3.73;;;21.90;99.90;;;;;;5026912;28;21064;-88
2021/05/31 10:45:23;;;;;;;3.87;3.60;;;22.00;99.90;;;;;;5032625;28;20733;-91
2021/05/31 10:47:59;;;;;;;4.07;3.70;;;22.00;99.90;;;;;;5032020;28;20729;-88
2021/05/31 10:50:31;;;;;;;4.90;3.80;;;22.10;99.90;;;;;;5031831;28;20686;-90
2021/05/31 10:52:56;;;;;;;4.37;3.97;;;22.10;99.90;;;;;;5028743;28;20615;-89
2021/05/31 10:55:27;;;;;;;4.10;3.80;;;22.20;99.90;;;;;;5026713;28;20979;-90
2021/05/31 10:57:59;;;;;;;4.20;3.80;;;22.30;99.90;;;;;;5021784;28;20665;-89
2021/05/31 11:00:32;;;;;;;4.40;3.73;;;22.40;99.90;;;;;;5024060;28;20697;-88
2021/05/31 11:03:09;;;;;;;4.10;3.80;;;22.40;99.90;;;;;;5022736;28;20739;-90
2021/05/31 11:05:37;;;;;;;4.30;3.90;;;22.50;99.90;;;;;;5026122;28;20643;-87
2021/05/31 11:08:04;;;;;;;4.40;4.00;;;22.60;99.90;;;;;;5028391;28;20626;-86
2021/05/31 11:10:33;;;;;;;4.33;4.03;;;22.70;99.90;;;;;;5028070;28;20623;-87
2021/05/31 11:13:14;;;;;;;4.03;3.60;;;22.70;99.90;;;;;;5028796;28;20666;-90
2021/05/31 11:15:45;;;;;;;4.30;4.00;;;22.70;99.90;;;;;;5030838;28;20678;-88
2021/05/31 11:18:32;;;;;;;4.17;3.87;;;22.80;99.90;;;;;;5044951;28;20625;-89
2021/05/31 11:21:01;;;;;;;4.23;3.83;;;23.10;99.90;;;;;;5036406;28;20627;-87
2021/05/31 11:23:29;;;;;;;4.47;3.80;;;23.10;99.90;;;;;;5026291;28;20648;-87
2021/05/31 11:25:57;;;;;;;3.90;3.60;;;23.10;99.90;;;;;;5022272;28;20710;-90
2021/05/31 11:28:24;;;;;;;4.10;3.80;;;23.20;99.90;;;;;;5029411;28;20723;-88
2021/05/31 11:30:50;;;;;;;4.30;3.93;;;23.30;99.90;;;;;;5013881;28;20623;-91
2021/05/31 11:33:16;;;;;;;4.30;4.00;;;23.40;99.90;;;;;;5021534;28;20640;-88
2021/05/31 11:35:45;;;;;;;4.27;3.97;;;23.50;99.90;;;;;;5036058;28;20691;-87
2021/05/31 11:38:11;;;;;;;3.73;3.53;;;23.60;99.90;;;;;;5024479;28;20966;-89
2021/05/31 11:40:40;;;;;;;7.23;4.90;;;23.60;99.90;;;;;;5019373;28;20626;-88
2021/05/31 11:43:09;;;;;;;5.10;4.33;;;23.60;99.90;;;;;;5023964;28;20706;-88
2021/05/31 11:45:37;;;;;;;4.73;4.33;;;23.90;99.90;;;;;;5006639;28;21245;-88
2021/05/31 11:48:15;;;;;;;5.30;4.80;;;23.80;99.90;;;;;;5013847;28;20618;-88
2021/05/31 11:50:42;;;;;;;4.77;4.40;;;24.00;99.90;;;;;;5011671;28;20710;-87
2021/05/31 11:53:10;;;;;;;4.37;4.07;;;24.00;99.90;;;;;;5019045;28;20640;-90
2021/05/31 11:55:40;;;;;;;4.10;3.77;;;24.10;99.90;;;;;;5025422;28;20686;-88
2021/05/31 11:58:38;;;;;;;4.30;3.97;;;24.20;99.90;;;;;;5019586;28;20627;-89
2021/05/31 12:01:03;;;;;;;5.40;4.27;;;24.30;99.90;;;;;;5012935;28;20625;-89
2021/05/31 12:03:35;;;;;;;4.10;3.80;;;24.40;99.90;;;;;;5023914;28;20652;-88
2021/05/31 12:06:10;;;;;;;3.90;3.60;;;24.60;99.90;;;;;;5024897;28;20243;-88
2021/05/31 12:08:36;;;;;;;4.47;4.17;;;24.60;99.90;;;;;;5029508;28;20702;-88
2021/05/31 12:11:02;;;;;;;4.40;4.10;;;24.70;99.90;;;;;;5036540;28;20651;-88
2021/05/31 12:13:30;;;;;;;5.10;4.33;;;24.80;99.90;;;;;;5020974;28;21291;-87
2021/05/31 12:15:55;;;;;;;4.30;4.00;;;25.00;99.90;;;;;;5023407;28;20278;-87
2021/05/31 12:18:22;;;;;;;4.67;4.37;;;25.00;99.90;;;;;;5018008;28;21193;-88
2021/05/31 12:20:56;;;;;;;4.30;4.00;;;25.10;99.90;;;;;;5022817;28;20262;-88
2021/05/31 12:23:23;;;;;;;3.90;3.67;;;25.20;99.90;;;;;;5017842;28;20636;-87
2021/05/31 12:25:51;;;;;;;4.70;4.30;;;25.20;99.90;;;;;;5024032;28;20659;-89
2021/05/31 12:28:18;;;;;;;4.90;4.03;;;25.20;99.90;;;;;;5027316;28;20627;-88
2021/05/31 12:30:45;;;;;;;4.03;3.57;;;25.40;99.90;;;;;;5038087;28;20627;-90
2021/05/31 12:33:12;;;;;;;3.57;3.37;;;25.40;99.90;;;;;;5060872;28;20632;-89
2021/05/31 12:35:38;;;;;;;4.93;4.03;;;25.40;99.90;;;;;;5042077;28;20659;-90
2021/05/31 12:38:04;;;;;;;4.07;3.80;;;25.40;99.90;;;;;;5034298;28;20648;-89
2021/05/31 12:40:35;;;;;;;4.00;3.70;;;25.50;99.90;;;;;;5028294;28;20600;-87
2021/05/31 12:43:02;;;;;;;4.03;3.80;;;25.50;99.90;;;;;;5012276;28;20617;-90
2021/05/31 12:45:28;;;;;;;4.13;3.83;;;25.50;99.90;;;;;;5012390;28;20623;-91
2021/05/31 12:47:55;;;;;;;4.80;4.40;;;25.60;99.90;;;;;;5004869;28;20635;-87
2021/05/31 12:50:27;;;;;;;4.17;3.87;;;25.80;99.90;;;;;;5010837;28;20628;-88
2021/05/31 12:52:53;;;;;;;4.80;4.03;;;25.90;99.90;;;;;;5019827;28;20623;-91
2021/05/31 12:55:31;;;;;;;4.60;4.20;;;25.80;99.90;;;;;;5014910;28;20686;-87
2021/05/31 12:57:57;;;;;;;4.70;4.17;;;26.00;99.90;;;;;;5008863;28;20659;-90
2021/05/31 13:00:33;;;;;;;4.30;4.00;;;26.20;99.90;;;;;;5013964;28;20626;-90
2021/05/31 13:03:03;;;;;;;4.80;4.40;;;26.10;99.90;;;;;;5015718;28;20638;-87